Terminal Aerodrome Forecast
Issued by NWS North Platte, NE

Current Version | Previous Version | Text Only | Print | Product List | Glossary On
Versions: 1 2 3 4 5 6 7 8 9 10 11 12 13 14 15
540
FTUS43 KLBF 211120
TAFLBF
TAF
KLBF 211120Z 2112/2212 02020G30KT P6SM SCT070 OVC090
     FM211300 35013G19KT P6SM BKN120
     FM212300 VRB06KT P6SM FEW250=

USA.gov is the U.S. government's official web portal to all federal, state and local government web resources and services.